Sea Cloud II — 9HUE6 — position and weather

sailwx.info

Track history (hours):
 
Tides and Currents Weather Stations Pressure Air Temp Water Temp Dewpoint Dewpoint Depression Visibility Wind Speed Wind Dir Waves Ship Positions

Sea Cloud II

Ship's website: http://www.seacloud.com/en/the-ships/sea-cloud-ii.html

Last reported at 2018-Jan-19 20:06 UTC. Time now 2018-Jan-21 10:12 UTC.
Position N 15°31' W 061°39'.

Length 117 m; draft 6 m.

Type: Passenger vessel. MMSI: 248953000.

Date/timePositionNaut miles runAvg speedWind from/ knotsBaromVisibWave heightAir tempDewpointWater temp
2018-Jan-19 20:06N 15°31' W 061°39'2 4.5
2018-Jan-19 19:44N 15°33' W 061°39'6 3.8
2018-Jan-19 18:06N 15°34' W 061°32'8 0.9
2018-Jan-19 09:33N 15°37' W 061°40'1 6.3
2018-Jan-19 09:20N 15°38' W 061°41'  
2018-Jan-11 20:42N 17°54' W 062°52'2 8.5
2018-Jan-11 20:25N 17°53' W 062°55'2 4.4
2018-Jan-11 19:58N 17°51' W 062°54'4 7.0
2018-Jan-11 19:27N 17°49' W 062°51'27 6.9
2018-Jan-11 15:29N 17°34' W 062°27'3 5.2
2018-Jan-11 14:59N 17°36' W 062°25'3 6.0
2018-Jan-11 14:29N 17°38' W 062°23'3 5.9
2018-Jan-11 13:57N 17°41' W 062°21'3 6.6
2018-Jan-11 13:30N 17°42' W 062°19'3 6.6
2018-Jan-11 12:59N 17°42' W 062°15'4 7.2
2018-Jan-11 12:28N 17°41' W 062°12'2 4.3
2018-Jan-11 12:00N 17°40' W 062°10'3 5.3
2018-Jan-11 11:30N 17°37' W 062°09'3 6.2
2018-Jan-11 11:00N 17°34' W 062°09'3 6.4
2018-Jan-11 10:30N 17°31' W 062°08'3 6.5
2018-Jan-11 10:00N 17°28' W 062°08'3 6.9
2018-Jan-11 09:30N 17°24' W 062°08'4 7.1
2018-Jan-11 09:00N 17°21' W 062°07'4 7.2
2018-Jan-11 08:30N 17°17' W 062°07'4 7.7
2018-Jan-11 08:00N 17°13' W 062°06'4 8.0
2018-Jan-11 07:30N 17°09' W 062°06'4 8.4
2018-Jan-11 07:00N 17°05' W 062°05'4 8.4
2018-Jan-11 06:30N 17°01' W 062°04'4 8.4
2018-Jan-11 06:00N 16°57' W 062°04'4 8.4
2018-Jan-11 05:28N 16°52' W 062°03'4 8.4
2018-Jan-11 05:00N 16°49' W 062°03'4 8.2
2018-Jan-11 04:30N 16°45' W 062°03'4 8.1
2018-Jan-11 04:00N 16°41' W 062°02'4 8.0
2018-Jan-11 03:30N 16°37' W 062°01'4 8.3
2018-Jan-11 03:00N 16°32' W 062°01'4 8.5
2018-Jan-11 02:30N 16°28' W 062°00'4 8.5
2018-Jan-11 02:00N 16°24' W 061°60'4 8.3
2018-Jan-11 01:30N 16°20' W 061°59'4 7.7
2018-Jan-11 01:00N 16°16' W 061°58'4 7.9
2018-Jan-11 00:30N 16°12' W 061°58'4 7.6
2018-Jan-11 00:00N 16°08' W 061°57'20 6.0
2018-Jan-10 20:44N 15°51' W 061°47'1 5.5
2018-Jan-10 20:30N 15°51' W 061°46'11 0.5
2018-Jan-09 23:03N 15°46' W 061°36'111.0
2018-Jan-09 22:58N 15°45' W 061°35'  
Track history (hours):
 
Tides and Currents Weather Stations Pressure Air Temp Water Temp Dewpoint Dewpoint Depression Visibility Wind Speed Wind Dir Waves Ship Positions

Sea Cloud II

Ship's website: http://www.seacloud.com/en/the-ships/sea-cloud-ii.html

Last reported at 2018-Jan-19 20:06 UTC. Time now 2018-Jan-21 10:12 UTC.
Position N 15°31' W 061°39'.

Length 117 m; draft 6 m.

Type: Passenger vessel. MMSI: 248953000.

Date/timePositionNaut miles runAvg speedWind from/ knotsBaromVisibWave heightAir tempDewpointWater temp
2018-Jan-19 20:06N 15°31' W 061°39'2 4.5
2018-Jan-19 19:44N 15°33' W 061°39'6 3.8
2018-Jan-19 18:06N 15°34' W 061°32'8 0.9
2018-Jan-19 09:33N 15°37' W 061°40'1 6.3
2018-Jan-19 09:20N 15°38' W 061°41'  
2018-Jan-11 20:42N 17°54' W 062°52'2 8.5
2018-Jan-11 20:25N 17°53' W 062°55'2 4.4
2018-Jan-11 19:58N 17°51' W 062°54'4 7.0
2018-Jan-11 19:27N 17°49' W 062°51'27 6.9
2018-Jan-11 15:29N 17°34' W 062°27'3 5.2
2018-Jan-11 14:59N 17°36' W 062°25'3 6.0
2018-Jan-11 14:29N 17°38' W 062°23'3 5.9
2018-Jan-11 13:57N 17°41' W 062°21'3 6.6
2018-Jan-11 13:30N 17°42' W 062°19'3 6.6
2018-Jan-11 12:59N 17°42' W 062°15'4 7.2
2018-Jan-11 12:28N 17°41' W 062°12'2 4.3
2018-Jan-11 12:00N 17°40' W 062°10'3 5.3
2018-Jan-11 11:30N 17°37' W 062°09'3 6.2
2018-Jan-11 11:00N 17°34' W 062°09'3 6.4
2018-Jan-11 10:30N 17°31' W 062°08'3 6.5
2018-Jan-11 10:00N 17°28' W 062°08'3 6.9
2018-Jan-11 09:30N 17°24' W 062°08'4 7.1
2018-Jan-11 09:00N 17°21' W 062°07'4 7.2
2018-Jan-11 08:30N 17°17' W 062°07'4 7.7
2018-Jan-11 08:00N 17°13' W 062°06'4 8.0
2018-Jan-11 07:30N 17°09' W 062°06'4 8.4
2018-Jan-11 07:00N 17°05' W 062°05'4 8.4
2018-Jan-11 06:30N 17°01' W 062°04'4 8.4
2018-Jan-11 06:00N 16°57' W 062°04'4 8.4
2018-Jan-11 05:28N 16°52' W 062°03'4 8.4
2018-Jan-11 05:00N 16°49' W 062°03'4 8.2
2018-Jan-11 04:30N 16°45' W 062°03'4 8.1
2018-Jan-11 04:00N 16°41' W 062°02'4 8.0
2018-Jan-11 03:30N 16°37' W 062°01'4 8.3
2018-Jan-11 03:00N 16°32' W 062°01'4 8.5
2018-Jan-11 02:30N 16°28' W 062°00'4 8.5
2018-Jan-11 02:00N 16°24' W 061°60'4 8.3
2018-Jan-11 01:30N 16°20' W 061°59'4 7.7
2018-Jan-11 01:00N 16°16' W 061°58'4 7.9
2018-Jan-11 00:30N 16°12' W 061°58'4 7.6
2018-Jan-11 00:00N 16°08' W 061°57'20 6.0
2018-Jan-10 20:44N 15°51' W 061°47'1 5.5
2018-Jan-10 20:30N 15°51' W 061°46'11 0.5
2018-Jan-09 23:03N 15°46' W 061°36'111.0
2018-Jan-09 22:58N 15°45' W 061°35'  

Dump ship's entire track history